Terminal Aerodrome Forecast
Issued by NWS Blacksburg, VA

Current Version | Previous Version | Text Only | Print | Product List | Glossary Off
Versions: 1 2 3 4 5 6 7 8 9 10 11 12 13 14 15 16 17 18 19 20 21 22 23 24 25 26

000
FTUS41 KRNK 221735
TAFBLF
TAF
KBLF 221735Z 2218/2318 32009G18KT P6SM BKN040
     FM230100 30005KT P6SM BKN035
     FM230900 29004KT 5SM BR BKN007
     FM231400 33005KT P6SM BKN020=

USA.gov is the U.S. government's official web portal to all federal, state and local government web resources and services.